sensor_id;sensor_type;location;lat;lon;timestamp;temperature;humidity
15298;DHT22;7750;48.796;9.026;2023-05-28T00:04:50;18.30;51.50
15298;DHT22;7750;48.796;9.026;2023-05-28T00:09:51;18.30;51.60
15298;DHT22;7750;48.796;9.026;2023-05-28T00:14:52;18.10;52.30
15298;DHT22;7750;48.796;9.026;2023-05-28T00:19:52;18.10;52.00
15298;DHT22;7750;48.796;9.026;2023-05-28T00:24:53;18.00;52.20
15298;DHT22;7750;48.796;9.026;2023-05-28T00:29:54;17.90;52.20
15298;DHT22;7750;48.796;9.026;2023-05-28T00:34:54;17.80;52.50
15298;DHT22;7750;48.796;9.026;2023-05-28T00:39:56;17.70;52.70
15298;DHT22;7750;48.796;9.026;2023-05-28T00:44:57;17.70;52.80
15298;DHT22;7750;48.796;9.026;2023-05-28T00:49:57;17.60;52.90
15298;DHT22;7750;48.796;9.026;2023-05-28T00:55:00;17.50;53.10
15298;DHT22;7750;48.796;9.026;2023-05-28T01:00:01;17.40;53.20
15298;DHT22;7750;48.796;9.026;2023-05-28T01:05:05;17.40;53.40
15298;DHT22;7750;48.796;9.026;2023-05-28T01:10:06;17.30;53.60
15298;DHT22;7750;48.796;9.026;2023-05-28T01:15:07;17.30;53.90
15298;DHT22;7750;48.796;9.026;2023-05-28T01:20:08;17.20;54.00
15298;DHT22;7750;48.796;9.026;2023-05-28T01:25:14;17.10;54.10
15298;DHT22;7750;48.796;9.026;2023-05-28T01:30:15;17.00;54.30
15298;DHT22;7750;48.796;9.026;2023-05-28T01:35:17;17.00;54.30
15298;DHT22;7750;48.796;9.026;2023-05-28T01:40:18;16.90;54.40
15298;DHT22;7750;48.796;9.026;2023-05-28T01:45:19;16.80;54.50
15298;DHT22;7750;48.796;9.026;2023-05-28T01:50:20;16.80;54.70
15298;DHT22;7750;48.796;9.026;2023-05-28T01:55:20;16.70;54.80
15298;DHT22;7750;48.796;9.026;2023-05-28T02:00:21;16.60;54.90
15298;DHT22;7750;48.796;9.026;2023-05-28T02:05:23;16.50;55.00
15298;DHT22;7750;48.796;9.026;2023-05-28T02:10:24;16.40;55.10
15298;DHT22;7750;48.796;9.026;2023-05-28T02:15:24;16.40;55.30
15298;DHT22;7750;48.796;9.026;2023-05-28T02:20:25;16.30;55.30
15298;DHT22;7750;48.796;9.026;2023-05-28T02:25:26;16.20;55.40
15298;DHT22;7750;48.796;9.026;2023-05-28T02:30:27;16.20;55.50
15298;DHT22;7750;48.796;9.026;2023-05-28T02:35:27;16.10;55.60
15298;DHT22;7750;48.796;9.026;2023-05-28T02:40:28;16.00;55.70
15298;DHT22;7750;48.796;9.026;2023-05-28T02:45:28;15.90;55.90
15298;DHT22;7750;48.796;9.026;2023-05-28T02:50:29;15.90;56.00
15298;DHT22;7750;48.796;9.026;2023-05-28T02:55:30;15.80;56.20
15298;DHT22;7750;48.796;9.026;2023-05-28T03:00:30;15.80;56.20
15298;DHT22;7750;48.796;9.026;2023-05-28T03:05:31;15.70;56.30
15298;DHT22;7750;48.796;9.026;2023-05-28T03:10:32;15.60;56.60
15298;DHT22;7750;48.796;9.026;2023-05-28T03:15:33;15.60;56.80
15298;DHT22;7750;48.796;9.026;2023-05-28T03:20:34;15.50;56.80
15298;DHT22;7750;48.796;9.026;2023-05-28T03:25:34;15.40;56.90
15298;DHT22;7750;48.796;9.026;2023-05-28T03:30:35;15.40;57.10
15298;DHT22;7750;48.796;9.026;2023-05-28T03:35:35;15.40;57.30
15298;DHT22;7750;48.796;9.026;2023-05-28T03:40:36;15.30;57.30
15298;DHT22;7750;48.796;9.026;2023-05-28T03:45:37;15.20;57.50
15298;DHT22;7750;48.796;9.026;2023-05-28T03:50:38;15.20;57.70
15298;DHT22;7750;48.796;9.026;2023-05-28T03:55:39;15.10;57.80
15298;DHT22;7750;48.796;9.026;2023-05-28T04:00:39;15.10;57.90
15298;DHT22;7750;48.796;9.026;2023-05-28T04:05:40;15.10;58.00
15298;DHT22;7750;48.796;9.026;2023-05-28T04:10:41;15.00;58.10
15298;DHT22;7750;48.796;9.026;2023-05-28T04:15:42;15.00;58.30
15298;DHT22;7750;48.796;9.026;2023-05-28T04:20:43;15.00;58.40
15298;DHT22;7750;48.796;9.026;2023-05-28T04:25:43;15.00;58.50
15298;DHT22;7750;48.796;9.026;2023-05-28T04:30:44;14.90;58.70
15298;DHT22;7750;48.796;9.026;2023-05-28T04:35:45;14.90;58.80
15298;DHT22;7750;48.796;9.026;2023-05-28T04:40:46;14.90;59.10
15298;DHT22;7750;48.796;9.026;2023-05-28T04:45:47;15.00;59.30
15298;DHT22;7750;48.796;9.026;2023-05-28T04:50:47;14.90;59.40
15298;DHT22;7750;48.796;9.026;2023-05-28T04:55:50;15.00;59.60
15298;DHT22;7750;48.796;9.026;2023-05-28T05:00:52;15.10;59.90
15298;DHT22;7750;48.796;9.026;2023-05-28T05:05:52;15.10;60.00
15298;DHT22;7750;48.796;9.026;2023-05-28T05:10:53;15.20;60.20
15298;DHT22;7750;48.796;9.026;2023-05-28T05:15:54;15.30;60.20
15298;DHT22;7750;48.796;9.026;2023-05-28T05:20:54;15.40;60.60
15298;DHT22;7750;48.796;9.026;2023-05-28T05:25:56;15.50;60.60
15298;DHT22;7750;48.796;9.026;2023-05-28T05:30:56;15.60;60.50
15298;DHT22;7750;48.796;9.026;2023-05-28T05:35:57;15.70;60.70
15298;DHT22;7750;48.796;9.026;2023-05-28T05:40:58;15.90;60.80
15298;DHT22;7750;48.796;9.026;2023-05-28T05:45:58;16.10;61.10
15298;DHT22;7750;48.796;9.026;2023-05-28T05:50:59;16.20;61.10
15298;DHT22;7750;48.796;9.026;2023-05-28T05:56:01;16.40;60.50
15298;DHT22;7750;48.796;9.026;2023-05-28T06:01:02;16.60;60.60
15298;DHT22;7750;48.796;9.026;2023-05-28T06:06:02;16.90;60.20
15298;DHT22;7750;48.796;9.026;2023-05-28T06:11:03;17.10;59.60
15298;DHT22;7750;48.796;9.026;2023-05-28T06:16:04;17.30;59.30
15298;DHT22;7750;48.796;9.026;2023-05-28T06:21:05;17.40;59.30
15298;DHT22;7750;48.796;9.026;2023-05-28T06:26:08;17.70;59.20
15298;DHT22;7750;48.796;9.026;2023-05-28T06:31:08;18.00;59.00
15298;DHT22;7750;48.796;9.026;2023-05-28T06:36:09;18.20;58.50
15298;DHT22;7750;48.796;9.026;2023-05-28T06:41:10;18.60;58.40
15298;DHT22;7750;48.796;9.026;2023-05-28T06:46:11;19.00;58.40
15298;DHT22;7750;48.796;9.026;2023-05-28T06:51:11;19.40;58.10
15298;DHT22;7750;48.796;9.026;2023-05-28T06:56:12;19.90;57.80
15298;DHT22;7750;48.796;9.026;2023-05-28T07:01:13;20.30;57.30
15298;DHT22;7750;48.796;9.026;2023-05-28T07:06:14;20.80;56.90
15298;DHT22;7750;48.796;9.026;2023-05-28T07:11:15;21.20;56.80
15298;DHT22;7750;48.796;9.026;2023-05-28T07:16:16;21.60;56.20
15298;DHT22;7750;48.796;9.026;2023-05-28T07:21:16;22.00;55.60
15298;DHT22;7750;48.796;9.026;2023-05-28T07:26:17;22.40;55.10
15298;DHT22;7750;48.796;9.026;2023-05-28T07:31:18;22.80;54.60
15298;DHT22;7750;48.796;9.026;2023-05-28T07:36:18;23.20;54.30
15298;DHT22;7750;48.796;9.026;2023-05-28T07:41:19;23.50;53.90
15298;DHT22;7750;48.796;9.026;2023-05-28T07:46:21;23.90;53.50
15298;DHT22;7750;48.796;9.026;2023-05-28T07:51:22;24.20;52.60
15298;DHT22;7750;48.796;9.026;2023-05-28T07:56:23;24.50;52.50
15298;DHT22;7750;48.796;9.026;2023-05-28T08:01:24;24.90;51.90
15298;DHT22;7750;48.796;9.026;2023-05-28T08:06:25;25.20;51.10
15298;DHT22;7750;48.796;9.026;2023-05-28T08:11:28;25.50;50.10
15298;DHT22;7750;48.796;9.026;2023-05-28T08:16:28;25.80;49.90
15298;DHT22;7750;48.796;9.026;2023-05-28T08:21:29;26.00;49.10
15298;DHT22;7750;48.796;9.026;2023-05-28T08:26:30;26.20;49.10
15298;DHT22;7750;48.796;9.026;2023-05-28T08:31:31;26.30;47.90
15298;DHT22;7750;48.796;9.026;2023-05-28T08:36:32;26.30;47.60
15298;DHT22;7750;48.796;9.026;2023-05-28T08:41:36;26.30;47.80
15298;DHT22;7750;48.796;9.026;2023-05-28T08:46:46;26.30;47.30
15298;DHT22;7750;48.796;9.026;2023-05-28T08:51:49;26.30;47.50
15298;DHT22;7750;48.796;9.026;2023-05-28T08:56:54;26.30;47.20
15298;DHT22;7750;48.796;9.026;2023-05-28T09:01:56;26.20;48.20
15298;DHT22;7750;48.796;9.026;2023-05-28T09:06:56;26.10;47.20
15298;DHT22;7750;48.796;9.026;2023-05-28T09:12:02;26.10;47.40
15298;DHT22;7750;48.796;9.026;2023-05-28T09:17:04;26.00;47.40
15298;DHT22;7750;48.796;9.026;2023-05-28T09:22:05;26.00;47.10
15298;DHT22;7750;48.796;9.026;2023-05-28T09:27:06;26.00;47.20
15298;DHT22;7750;48.796;9.026;2023-05-28T09:32:07;26.10;46.40
15298;DHT22;7750;48.796;9.026;2023-05-28T09:37:08;26.10;46.70
15298;DHT22;7750;48.796;9.026;2023-05-28T09:42:10;26.00;46.40
15298;DHT22;7750;48.796;9.026;2023-05-28T09:47:18;26.50;43.70
15298;DHT22;7750;48.796;9.026;2023-05-28T09:52:20;26.30;45.10
15298;DHT22;7750;48.796;9.026;2023-05-28T10:07:43;26.70;45.60
15298;DHT22;7750;48.796;9.026;2023-05-28T10:12:46;26.90;45.00
15298;DHT22;7750;48.796;9.026;2023-05-28T10:17:49;27.10;45.00
15298;DHT22;7750;48.796;9.026;2023-05-28T10:22:51;27.20;45.10
15298;DHT22;7750;48.796;9.026;2023-05-28T10:27:59;27.30;43.70
15298;DHT22;7750;48.796;9.026;2023-05-28T10:33:07;27.50;43.80
15298;DHT22;7750;48.796;9.026;2023-05-28T10:38:08;27.70;43.70
15298;DHT22;7750;48.796;9.026;2023-05-28T10:48:40;27.90;44.00
15298;DHT22;7750;48.796;9.026;2023-05-28T10:53:41;28.00;43.40
15298;DHT22;7750;48.796;9.026;2023-05-28T10:58:42;28.10;43.90
15298;DHT22;7750;48.796;9.026;2023-05-28T11:03:46;28.20;43.30
15298;DHT22;7750;48.796;9.026;2023-05-28T11:08:48;28.40;43.30
15298;DHT22;7750;48.796;9.026;2023-05-28T11:13:49;28.50;43.20
15298;DHT22;7750;48.796;9.026;2023-05-28T11:19:06;28.60;43.80
15298;DHT22;7750;48.796;9.026;2023-05-28T11:24:09;28.70;42.40
15298;DHT22;7750;48.796;9.026;2023-05-28T11:29:12;28.80;42.40
15298;DHT22;7750;48.796;9.026;2023-05-28T11:34:13;28.90;42.60
15298;DHT22;7750;48.796;9.026;2023-05-28T11:39:14;29.10;42.60
15298;DHT22;7750;48.796;9.026;2023-05-28T11:44:21;29.10;42.10
15298;DHT22;7750;48.796;9.026;2023-05-28T11:49:22;29.20;42.00
15298;DHT22;7750;48.796;9.026;2023-05-28T11:54:23;29.20;42.00
15298;DHT22;7750;48.796;9.026;2023-05-28T11:59:24;29.40;41.60
15298;DHT22;7750;48.796;9.026;2023-05-28T12:04:27;29.50;41.50
15298;DHT22;7750;48.796;9.026;2023-05-28T12:09:27;29.60;41.70
15298;DHT22;7750;48.796;9.026;2023-05-28T12:14:30;29.70;41.00
15298;DHT22;7750;48.796;9.026;2023-05-28T12:19:33;29.80;40.80
15298;DHT22;7750;48.796;9.026;2023-05-28T12:24:34;29.90;40.30
15298;DHT22;7750;48.796;9.026;2023-05-28T12:29:34;30.10;41.00
15298;DHT22;7750;48.796;9.026;2023-05-28T12:34:35;30.20;40.30
15298;DHT22;7750;48.796;9.026;2023-05-28T12:39:37;30.30;40.30
15298;DHT22;7750;48.796;9.026;2023-05-28T12:44:37;30.40;40.30
15298;DHT22;7750;48.796;9.026;2023-05-28T12:49:38;30.50;39.50
15298;DHT22;7750;48.796;9.026;2023-05-28T12:54:40;30.60;40.00
15298;DHT22;7750;48.796;9.026;2023-05-28T12:59:41;30.60;39.50
15298;DHT22;7750;48.796;9.026;2023-05-28T13:04:42;30.70;39.60
15298;DHT22;7750;48.796;9.026;2023-05-28T13:09:42;30.80;38.70
15298;DHT22;7750;48.796;9.026;2023-05-28T13:14:43;30.90;38.30
15298;DHT22;7750;48.796;9.026;2023-05-28T13:19:44;30.90;38.20
15298;DHT22;7750;48.796;9.026;2023-05-28T13:24:44;30.90;38.10
15298;DHT22;7750;48.796;9.026;2023-05-28T13:29:45;31.00;38.60
15298;DHT22;7750;48.796;9.026;2023-05-28T13:34:45;31.10;37.90
15298;DHT22;7750;48.796;9.026;2023-05-28T13:39:46;31.20;37.70
15298;DHT22;7750;48.796;9.026;2023-05-28T13:44:48;31.20;38.40
15298;DHT22;7750;48.796;9.026;2023-05-28T13:49:48;31.20;37.30
15298;DHT22;7750;48.796;9.026;2023-05-28T13:54:49;31.30;37.20
15298;DHT22;7750;48.796;9.026;2023-05-28T13:59:50;31.30;37.10
15298;DHT22;7750;48.796;9.026;2023-05-28T14:04:50;31.40;36.70
15298;DHT22;7750;48.796;9.026;2023-05-28T14:09:51;31.40;36.80
15298;DHT22;7750;48.796;9.026;2023-05-28T14:14:52;31.50;36.60
15298;DHT22;7750;48.796;9.026;2023-05-28T14:19:52;31.50;36.40
15298;DHT22;7750;48.796;9.026;2023-05-28T14:24:53;31.50;36.80
15298;DHT22;7750;48.796;9.026;2023-05-28T14:29:53;31.50;36.50
15298;DHT22;7750;48.796;9.026;2023-05-28T14:34:54;31.40;36.80
15298;DHT22;7750;48.796;9.026;2023-05-28T14:39:55;31.30;36.90
15298;DHT22;7750;48.796;9.026;2023-05-28T14:44:55;31.30;36.60
15298;DHT22;7750;48.796;9.026;2023-05-28T14:49:56;31.30;36.70
15298;DHT22;7750;48.796;9.026;2023-05-28T14:54:58;31.20;36.60
15298;DHT22;7750;48.796;9.026;2023-05-28T15:00:08;31.10;36.60
15298;DHT22;7750;48.796;9.026;2023-05-28T15:05:10;31.00;36.20
15298;DHT22;7750;48.796;9.026;2023-05-28T15:10:11;30.90;36.40
15298;DHT22;7750;48.796;9.026;2023-05-28T15:15:12;30.80;36.80
15298;DHT22;7750;48.796;9.026;2023-05-28T15:20:12;30.80;36.60
15298;DHT22;7750;48.796;9.026;2023-05-28T15:25:13;30.70;36.60
15298;DHT22;7750;48.796;9.026;2023-05-28T15:30:14;30.70;37.30
15298;DHT22;7750;48.796;9.026;2023-05-28T15:35:15;30.70;36.80
15298;DHT22;7750;48.796;9.026;2023-05-28T15:40:16;30.80;37.20
15298;DHT22;7750;48.796;9.026;2023-05-28T15:45:17;30.70;36.60
15298;DHT22;7750;48.796;9.026;2023-05-28T15:50:17;30.60;37.10
15298;DHT22;7750;48.796;9.026;2023-05-28T15:55:18;30.50;36.90
15298;DHT22;7750;48.796;9.026;2023-05-28T16:00:19;30.50;36.80
15298;DHT22;7750;48.796;9.026;2023-05-28T16:05:26;30.40;36.90
15298;DHT22;7750;48.796;9.026;2023-05-28T16:10:27;30.20;36.70
15298;DHT22;7750;48.796;9.026;2023-05-28T16:15:30;30.20;37.00
15298;DHT22;7750;48.796;9.026;2023-05-28T16:20:34;30.10;37.20
15298;DHT22;7750;48.796;9.026;2023-05-28T16:25:35;30.10;37.20
15298;DHT22;7750;48.796;9.026;2023-05-28T16:30:36;30.00;37.10
15298;DHT22;7750;48.796;9.026;2023-05-28T16:35:37;29.80;37.20
15298;DHT22;7750;48.796;9.026;2023-05-28T16:40:38;29.70;37.50
15298;DHT22;7750;48.796;9.026;2023-05-28T16:45:39;29.60;37.90
15298;DHT22;7750;48.796;9.026;2023-05-28T16:50:40;29.50;38.10
15298;DHT22;7750;48.796;9.026;2023-05-28T16:55:41;29.40;38.40
15298;DHT22;7750;48.796;9.026;2023-05-28T17:00:41;29.30;38.30
15298;DHT22;7750;48.796;9.026;2023-05-28T17:05:42;29.30;38.30
15298;DHT22;7750;48.796;9.026;2023-05-28T17:10:43;29.10;38.70
15298;DHT22;7750;48.796;9.026;2023-05-28T17:15:44;29.10;38.30
15298;DHT22;7750;48.796;9.026;2023-05-28T17:20:44;28.90;38.40
15298;DHT22;7750;48.796;9.026;2023-05-28T17:25:45;28.80;38.30
15298;DHT22;7750;48.796;9.026;2023-05-28T17:30:46;28.60;38.70
15298;DHT22;7750;48.796;9.026;2023-05-28T17:35:46;28.40;38.90
15298;DHT22;7750;48.796;9.026;2023-05-28T17:40:47;28.30;38.90
15298;DHT22;7750;48.796;9.026;2023-05-28T17:45:50;28.10;39.10
15298;DHT22;7750;48.796;9.026;2023-05-28T17:50:59;28.00;39.00
15298;DHT22;7750;48.796;9.026;2023-05-28T17:56:00;27.90;39.30
15298;DHT22;7750;48.796;9.026;2023-05-28T18:01:00;27.70;39.50
15298;DHT22;7750;48.796;9.026;2023-05-28T18:06:06;27.60;39.60
15298;DHT22;7750;48.796;9.026;2023-05-28T18:17:12;27.90;40.40
15298;DHT22;7750;48.796;9.026;2023-05-28T18:22:13;27.40;39.90
15298;DHT22;7750;48.796;9.026;2023-05-28T18:27:13;27.20;40.10
15298;DHT22;7750;48.796;9.026;2023-05-28T18:33:06;27.00;40.10
15298;DHT22;7750;48.796;9.026;2023-05-28T18:38:40;26.90;40.30
15298;DHT22;7750;48.796;9.026;2023-05-28T19:46:43;24.60;43.30
15298;DHT22;7750;48.796;9.026;2023-05-28T19:51:44;24.40;43.50
15298;DHT22;7750;48.796;9.026;2023-05-28T19:56:45;24.30;43.80
15298;DHT22;7750;48.796;9.026;2023-05-28T20:01:45;24.10;43.90
15298;DHT22;7750;48.796;9.026;2023-05-28T20:06:47;24.00;43.90
15298;DHT22;7750;48.796;9.026;2023-05-28T20:11:48;23.80;44.20
15298;DHT22;7750;48.796;9.026;2023-05-28T20:16:49;23.60;44.40
15298;DHT22;7750;48.796;9.026;2023-05-28T20:21:50;23.50;44.50
15298;DHT22;7750;48.796;9.026;2023-05-28T20:26:51;23.30;44.80
15298;DHT22;7750;48.796;9.026;2023-05-28T20:31:52;23.20;44.90
15298;DHT22;7750;48.796;9.026;2023-05-28T20:36:52;23.00;45.00
15298;DHT22;7750;48.796;9.026;2023-05-28T20:41:56;22.90;45.30
15298;DHT22;7750;48.796;9.026;2023-05-28T20:46:57;22.70;45.80
15298;DHT22;7750;48.796;9.026;2023-05-28T20:51:58;22.60;45.90
15298;DHT22;7750;48.796;9.026;2023-05-28T20:56:58;22.50;46.10
15298;DHT22;7750;48.796;9.026;2023-05-28T21:01:59;22.40;46.20
15298;DHT22;7750;48.796;9.026;2023-05-28T21:07:00;22.30;46.50
15298;DHT22;7750;48.796;9.026;2023-05-28T21:12:01;22.20;46.60
15298;DHT22;7750;48.796;9.026;2023-05-28T21:17:01;22.10;47.50
15298;DHT22;7750;48.796;9.026;2023-05-28T21:22:02;22.00;47.00
15298;DHT22;7750;48.796;9.026;2023-05-28T21:27:03;21.90;47.10
15298;DHT22;7750;48.796;9.026;2023-05-28T21:32:04;21.80;47.30
15298;DHT22;7750;48.796;9.026;2023-05-28T21:37:04;21.70;47.60
15298;DHT22;7750;48.796;9.026;2023-05-28T21:42:05;21.60;47.80
15298;DHT22;7750;48.796;9.026;2023-05-28T21:47:06;21.50;47.90
15298;DHT22;7750;48.796;9.026;2023-05-28T21:52:06;21.40;48.20
15298;DHT22;7750;48.796;9.026;2023-05-28T21:57:07;21.30;48.20
15298;DHT22;7750;48.796;9.026;2023-05-28T22:02:08;21.20;48.50
15298;DHT22;7750;48.796;9.026;2023-05-28T22:07:09;21.10;48.50
15298;DHT22;7750;48.796;9.026;2023-05-28T22:12:10;21.00;48.80
15298;DHT22;7750;48.796;9.026;2023-05-28T22:17:14;20.90;48.80
15298;DHT22;7750;48.796;9.026;2023-05-28T22:22:18;20.70;49.00
15298;DHT22;7750;48.796;9.026;2023-05-28T22:27:19;20.60;49.30
15298;DHT22;7750;48.796;9.026;2023-05-28T22:32:19;20.50;49.50
15298;DHT22;7750;48.796;9.026;2023-05-28T22:37:20;20.30;49.60
15298;DHT22;7750;48.796;9.026;2023-05-28T22:42:22;20.20;49.80
15298;DHT22;7750;48.796;9.026;2023-05-28T22:47:22;20.20;50.10
15298;DHT22;7750;48.796;9.026;2023-05-28T22:52:26;20.10;50.20
15298;DHT22;7750;48.796;9.026;2023-05-28T22:57:27;20.00;50.30
15298;DHT22;7750;48.796;9.026;2023-05-28T23:02:27;19.90;50.40
15298;DHT22;7750;48.796;9.026;2023-05-28T23:07:30;19.80;50.60
15298;DHT22;7750;48.796;9.026;2023-05-28T23:12:30;19.70;50.80
15298;DHT22;7750;48.796;9.026;2023-05-28T23:17:31;19.60;50.90
15298;DHT22;7750;48.796;9.026;2023-05-28T23:22:32;19.50;51.00
15298;DHT22;7750;48.796;9.026;2023-05-28T23:27:33;19.40;51.10
15298;DHT22;7750;48.796;9.026;2023-05-28T23:32:34;19.30;51.20
15298;DHT22;7750;48.796;9.026;2023-05-28T23:37:35;19.20;51.30
15298;DHT22;7750;48.796;9.026;2023-05-28T23:42:35;19.20;51.50
15298;DHT22;7750;48.796;9.026;2023-05-28T23:47:36;19.10;51.70
15298;DHT22;7750;48.796;9.026;2023-05-28T23:52:37;19.00;51.80
15298;DHT22;7750;48.796;9.026;2023-05-28T23:57:38;19.00;52.00
